sensor_id;sensor_type;location;lat;lon;timestamp;temperature;humidity
13606;DHT22;6874;52.084;5.090;2023-02-28T00:00:12;2.60;99.90
13606;DHT22;6874;52.084;5.090;2023-02-28T00:02:39;2.60;99.90
13606;DHT22;6874;52.084;5.090;2023-02-28T00:05:05;2.60;99.90
13606;DHT22;6874;52.084;5.090;2023-02-28T00:07:32;2.60;99.90
13606;DHT22;6874;52.084;5.090;2023-02-28T00:09:58;2.60;99.90
13606;DHT22;6874;52.084;5.090;2023-02-28T00:12:24;2.60;99.90
13606;DHT22;6874;52.084;5.090;2023-02-28T00:14:50;2.60;99.90
13606;DHT22;6874;52.084;5.090;2023-02-28T00:17:16;2.60;99.90
13606;DHT22;6874;52.084;5.090;2023-02-28T00:19:47;2.60;99.90
13606;DHT22;6874;52.084;5.090;2023-02-28T00:22:13;2.60;99.90
13606;DHT22;6874;52.084;5.090;2023-02-28T00:24:38;2.60;99.90
13606;DHT22;6874;52.084;5.090;2023-02-28T00:27:04;2.60;99.90
13606;DHT22;6874;52.084;5.090;2023-02-28T00:29:29;2.50;99.90
13606;DHT22;6874;52.084;5.090;2023-02-28T00:31:55;2.60;99.90
13606;DHT22;6874;52.084;5.090;2023-02-28T00:34:21;2.60;99.90
13606;DHT22;6874;52.084;5.090;2023-02-28T00:36:46;2.60;99.90
13606;DHT22;6874;52.084;5.090;2023-02-28T00:39:14;2.60;99.90
13606;DHT22;6874;52.084;5.090;2023-02-28T00:41:40;2.60;99.90
13606;DHT22;6874;52.084;5.090;2023-02-28T00:44:05;2.60;99.90
13606;DHT22;6874;52.084;5.090;2023-02-28T00:46:31;2.60;99.90
13606;DHT22;6874;52.084;5.090;2023-02-28T00:48:56;2.60;99.90
13606;DHT22;6874;52.084;5.090;2023-02-28T00:51:22;2.60;99.90
13606;DHT22;6874;52.084;5.090;2023-02-28T00:53:47;2.60;99.90
13606;DHT22;6874;52.084;5.090;2023-02-28T00:56:13;2.60;99.90
13606;DHT22;6874;52.084;5.090;2023-02-28T00:58:39;2.60;99.90
13606;DHT22;6874;52.084;5.090;2023-02-28T01:01:05;2.60;99.90
13606;DHT22;6874;52.084;5.090;2023-02-28T01:03:31;2.60;99.90
13606;DHT22;6874;52.084;5.090;2023-02-28T01:05:57;2.70;99.90
13606;DHT22;6874;52.084;5.090;2023-02-28T01:08:23;2.60;99.90
13606;DHT22;6874;52.084;5.090;2023-02-28T01:10:49;2.60;99.90
13606;DHT22;6874;52.084;5.090;2023-02-28T01:13:15;2.70;99.90
13606;DHT22;6874;52.084;5.090;2023-02-28T01:15:45;2.70;99.90
13606;DHT22;6874;52.084;5.090;2023-02-28T01:18:11;2.60;99.90
13606;DHT22;6874;52.084;5.090;2023-02-28T01:20:38;2.70;99.90
13606;DHT22;6874;52.084;5.090;2023-02-28T01:23:03;2.70;99.90
13606;DHT22;6874;52.084;5.090;2023-02-28T01:25:29;2.70;99.90
13606;DHT22;6874;52.084;5.090;2023-02-28T01:27:54;2.70;99.90
13606;DHT22;6874;52.084;5.090;2023-02-28T01:30:20;2.70;99.90
13606;DHT22;6874;52.084;5.090;2023-02-28T01:32:46;2.70;99.90
13606;DHT22;6874;52.084;5.090;2023-02-28T01:35:11;2.70;99.90
13606;DHT22;6874;52.084;5.090;2023-02-28T01:37:37;2.70;99.90
13606;DHT22;6874;52.084;5.090;2023-02-28T01:40:03;2.70;99.90
13606;DHT22;6874;52.084;5.090;2023-02-28T01:42:29;2.70;99.90
13606;DHT22;6874;52.084;5.090;2023-02-28T01:45:01;2.70;99.90
13606;DHT22;6874;52.084;5.090;2023-02-28T01:47:33;2.70;99.90
13606;DHT22;6874;52.084;5.090;2023-02-28T01:50:02;2.70;99.90
13606;DHT22;6874;52.084;5.090;2023-02-28T01:52:30;2.70;99.90
13606;DHT22;6874;52.084;5.090;2023-02-28T01:54:59;2.70;99.90
13606;DHT22;6874;52.084;5.090;2023-02-28T01:57:30;2.80;99.90
13606;DHT22;6874;52.084;5.090;2023-02-28T02:00:06;2.80;99.90
13606;DHT22;6874;52.084;5.090;2023-02-28T02:02:34;2.70;99.90
13606;DHT22;6874;52.084;5.090;2023-02-28T02:05:05;2.80;99.90
13606;DHT22;6874;52.084;5.090;2023-02-28T02:07:34;2.80;99.90
13606;DHT22;6874;52.084;5.090;2023-02-28T02:10:11;2.80;99.90
13606;DHT22;6874;52.084;5.090;2023-02-28T02:30:08;2.80;99.90
13606;DHT22;6874;52.084;5.090;2023-02-28T02:38:39;2.80;99.90
13606;DHT22;6874;52.084;5.090;2023-02-28T02:43:48;2.80;99.90
13606;DHT22;6874;52.084;5.090;2023-02-28T02:46:45;2.80;99.90
13606;DHT22;6874;52.084;5.090;2023-02-28T02:49:16;2.90;99.90
13606;DHT22;6874;52.084;5.090;2023-02-28T02:51:45;2.90;99.90
13606;DHT22;6874;52.084;5.090;2023-02-28T02:54:16;2.80;99.90
13606;DHT22;6874;52.084;5.090;2023-02-28T02:56:46;2.90;99.90
13606;DHT22;6874;52.084;5.090;2023-02-28T02:59:14;2.80;99.90
13606;DHT22;6874;52.084;5.090;2023-02-28T03:01:41;2.80;99.90
13606;DHT22;6874;52.084;5.090;2023-02-28T03:04:12;2.90;99.90
13606;DHT22;6874;52.084;5.090;2023-02-28T03:06:38;2.90;99.90
13606;DHT22;6874;52.084;5.090;2023-02-28T03:09:04;2.90;99.90
13606;DHT22;6874;52.084;5.090;2023-02-28T03:11:30;2.90;99.90
13606;DHT22;6874;52.084;5.090;2023-02-28T03:14:18;2.90;99.90
13606;DHT22;6874;52.084;5.090;2023-02-28T03:19:51;2.90;99.90
13606;DHT22;6874;52.084;5.090;2023-02-28T03:22:28;2.90;99.90
13606;DHT22;6874;52.084;5.090;2023-02-28T03:30:21;2.90;99.90
13606;DHT22;6874;52.084;5.090;2023-02-28T03:32:56;2.90;99.90
13606;DHT22;6874;52.084;5.090;2023-02-28T03:35:30;2.90;99.90
13606;DHT22;6874;52.084;5.090;2023-02-28T03:38:07;2.90;99.90
13606;DHT22;6874;52.084;5.090;2023-02-28T03:40:36;2.90;99.90
13606;DHT22;6874;52.084;5.090;2023-02-28T03:43:17;2.90;99.90
13606;DHT22;6874;52.084;5.090;2023-02-28T03:45:43;3.00;99.90
13606;DHT22;6874;52.084;5.090;2023-02-28T03:48:21;3.00;99.90
13606;DHT22;6874;52.084;5.090;2023-02-28T03:50:49;2.90;99.90
13606;DHT22;6874;52.084;5.090;2023-02-28T03:55:51;2.90;99.90
13606;DHT22;6874;52.084;5.090;2023-02-28T03:58:42;3.00;99.90
13606;DHT22;6874;52.084;5.090;2023-02-28T04:01:16;2.90;99.90
13606;DHT22;6874;52.084;5.090;2023-02-28T04:03:44;3.00;99.90
13606;DHT22;6874;52.084;5.090;2023-02-28T04:06:16;3.00;99.90
13606;DHT22;6874;52.084;5.090;2023-02-28T04:08:42;3.00;99.90
13606;DHT22;6874;52.084;5.090;2023-02-28T04:11:22;3.00;99.90
13606;DHT22;6874;52.084;5.090;2023-02-28T04:13:49;3.00;99.90
13606;DHT22;6874;52.084;5.090;2023-02-28T04:16:15;3.00;99.90
13606;DHT22;6874;52.084;5.090;2023-02-28T04:18:43;3.00;99.90
13606;DHT22;6874;52.084;5.090;2023-02-28T04:21:10;3.00;99.90
13606;DHT22;6874;52.084;5.090;2023-02-28T04:23:35;3.00;99.90
13606;DHT22;6874;52.084;5.090;2023-02-28T04:26:02;3.00;99.90
13606;DHT22;6874;52.084;5.090;2023-02-28T04:28:27;3.00;99.90
13606;DHT22;6874;52.084;5.090;2023-02-28T04:30:57;3.00;99.90
13606;DHT22;6874;52.084;5.090;2023-02-28T04:33:23;3.00;99.90
13606;DHT22;6874;52.084;5.090;2023-02-28T04:36:01;3.00;99.90
13606;DHT22;6874;52.084;5.090;2023-02-28T04:38:28;3.00;99.90
13606;DHT22;6874;52.084;5.090;2023-02-28T04:40:53;3.00;99.90
13606;DHT22;6874;52.084;5.090;2023-02-28T04:43:21;3.00;99.90
13606;DHT22;6874;52.084;5.090;2023-02-28T04:45:47;3.00;99.90
13606;DHT22;6874;52.084;5.090;2023-02-28T04:48:12;3.00;99.90
13606;DHT22;6874;52.084;5.090;2023-02-28T04:50:38;3.00;99.90
13606;DHT22;6874;52.084;5.090;2023-02-28T04:53:03;3.00;99.90
13606;DHT22;6874;52.084;5.090;2023-02-28T04:55:29;3.00;99.90
13606;DHT22;6874;52.084;5.090;2023-02-28T04:57:54;3.00;99.90
13606;DHT22;6874;52.084;5.090;2023-02-28T05:00:20;3.00;99.90
13606;DHT22;6874;52.084;5.090;2023-02-28T05:02:46;3.00;99.90
13606;DHT22;6874;52.084;5.090;2023-02-28T05:05:11;3.00;99.90
13606;DHT22;6874;52.084;5.090;2023-02-28T05:07:43;3.00;99.90
13606;DHT22;6874;52.084;5.090;2023-02-28T05:10:10;3.00;99.90
13606;DHT22;6874;52.084;5.090;2023-02-28T05:12:35;3.10;99.90
13606;DHT22;6874;52.084;5.090;2023-02-28T05:15:01;3.00;99.90
13606;DHT22;6874;52.084;5.090;2023-02-28T05:17:27;3.00;99.90
13606;DHT22;6874;52.084;5.090;2023-02-28T05:19:53;3.00;99.90
13606;DHT22;6874;52.084;5.090;2023-02-28T05:22:19;3.00;99.90
13606;DHT22;6874;52.084;5.090;2023-02-28T05:24:44;3.00;99.90
13606;DHT22;6874;52.084;5.090;2023-02-28T05:27:10;3.00;99.90
13606;DHT22;6874;52.084;5.090;2023-02-28T05:29:36;3.00;99.90
13606;DHT22;6874;52.084;5.090;2023-02-28T05:32:09;3.00;99.90
13606;DHT22;6874;52.084;5.090;2023-02-28T05:34:36;3.00;99.90
13606;DHT22;6874;52.084;5.090;2023-02-28T05:37:02;3.00;99.90
13606;DHT22;6874;52.084;5.090;2023-02-28T05:39:27;3.00;99.90
13606;DHT22;6874;52.084;5.090;2023-02-28T05:41:53;3.00;99.90
13606;DHT22;6874;52.084;5.090;2023-02-28T05:44:18;3.00;99.90
13606;DHT22;6874;52.084;5.090;2023-02-28T05:46:44;2.90;99.90
13606;DHT22;6874;52.084;5.090;2023-02-28T05:49:09;2.90;99.90
13606;DHT22;6874;52.084;5.090;2023-02-28T05:51:35;2.90;99.90
13606;DHT22;6874;52.084;5.090;2023-02-28T05:54:02;2.90;99.90
13606;DHT22;6874;52.084;5.090;2023-02-28T05:56:28;2.90;99.90
13606;DHT22;6874;52.084;5.090;2023-02-28T06:01:51;2.90;99.90
13606;DHT22;6874;52.084;5.090;2023-02-28T06:04:20;2.90;99.90
13606;DHT22;6874;52.084;5.090;2023-02-28T06:07:06;2.90;99.90
13606;DHT22;6874;52.084;5.090;2023-02-28T06:12:39;2.80;99.90
13606;DHT22;6874;52.084;5.090;2023-02-28T06:15:07;2.80;99.90
13606;DHT22;6874;52.084;5.090;2023-02-28T06:17:33;2.80;99.90
13606;DHT22;6874;52.084;5.090;2023-02-28T06:19:58;2.80;99.90
13606;DHT22;6874;52.084;5.090;2023-02-28T06:22:24;2.80;99.90
13606;DHT22;6874;52.084;5.090;2023-02-28T06:24:49;2.80;99.90
13606;DHT22;6874;52.084;5.090;2023-02-28T06:27:15;2.80;99.90
13606;DHT22;6874;52.084;5.090;2023-02-28T06:29:40;2.80;99.90
13606;DHT22;6874;52.084;5.090;2023-02-28T06:32:06;2.80;99.90
13606;DHT22;6874;52.084;5.090;2023-02-28T06:34:32;2.70;99.90
13606;DHT22;6874;52.084;5.090;2023-02-28T06:36:59;2.70;99.90
13606;DHT22;6874;52.084;5.090;2023-02-28T06:39:30;2.70;99.90
13606;DHT22;6874;52.084;5.090;2023-02-28T06:41:56;2.70;99.90
13606;DHT22;6874;52.084;5.090;2023-02-28T06:44:23;2.70;99.90
13606;DHT22;6874;52.084;5.090;2023-02-28T06:46:49;2.70;99.90
13606;DHT22;6874;52.084;5.090;2023-02-28T06:49:15;2.70;99.90
13606;DHT22;6874;52.084;5.090;2023-02-28T06:51:42;2.70;99.90
13606;DHT22;6874;52.084;5.090;2023-02-28T06:54:10;2.60;99.90
13606;DHT22;6874;52.084;5.090;2023-02-28T06:56:36;2.70;99.90
13606;DHT22;6874;52.084;5.090;2023-02-28T06:59:01;2.60;99.90
13606;DHT22;6874;52.084;5.090;2023-02-28T07:01:27;2.60;99.90
13606;DHT22;6874;52.084;5.090;2023-02-28T07:03:53;2.60;99.90
13606;DHT22;6874;52.084;5.090;2023-02-28T07:06:20;2.60;99.90
13606;DHT22;6874;52.084;5.090;2023-02-28T07:08:48;2.60;99.90
13606;DHT22;6874;52.084;5.090;2023-02-28T07:11:14;2.60;99.90
13606;DHT22;6874;52.084;5.090;2023-02-28T07:13:39;2.60;99.90
13606;DHT22;6874;52.084;5.090;2023-02-28T07:16:06;2.60;99.90
13606;DHT22;6874;52.084;5.090;2023-02-28T07:18:35;2.60;99.90
13606;DHT22;6874;52.084;5.090;2023-02-28T07:21:06;2.60;99.90
13606;DHT22;6874;52.084;5.090;2023-02-28T07:23:32;2.50;99.90
13606;DHT22;6874;52.084;5.090;2023-02-28T07:25:58;2.60;99.90
13606;DHT22;6874;52.084;5.090;2023-02-28T07:28:24;2.50;99.90
13606;DHT22;6874;52.084;5.090;2023-02-28T07:30:50;2.50;99.90
13606;DHT22;6874;52.084;5.090;2023-02-28T07:33:16;2.50;99.90
13606;DHT22;6874;52.084;5.090;2023-02-28T07:35:41;2.50;99.90
13606;DHT22;6874;52.084;5.090;2023-02-28T07:38:07;2.60;99.90
13606;DHT22;6874;52.084;5.090;2023-02-28T07:40:34;2.50;99.90
13606;DHT22;6874;52.084;5.090;2023-02-28T07:43:01;2.50;99.90
13606;DHT22;6874;52.084;5.090;2023-02-28T07:45:27;2.50;99.90
13606;DHT22;6874;52.084;5.090;2023-02-28T07:47:57;2.50;99.90
13606;DHT22;6874;52.084;5.090;2023-02-28T07:50:23;2.60;99.90
13606;DHT22;6874;52.084;5.090;2023-02-28T07:52:49;2.60;99.90
13606;DHT22;6874;52.084;5.090;2023-02-28T07:55:14;2.60;99.90
13606;DHT22;6874;52.084;5.090;2023-02-28T07:57:42;2.60;99.90
13606;DHT22;6874;52.084;5.090;2023-02-28T08:00:10;2.60;99.90
13606;DHT22;6874;52.084;5.090;2023-02-28T08:02:36;2.60;99.90
13606;DHT22;6874;52.084;5.090;2023-02-28T08:05:02;2.60;99.90
13606;DHT22;6874;52.084;5.090;2023-02-28T08:07:28;2.60;99.90
13606;DHT22;6874;52.084;5.090;2023-02-28T08:09:53;2.60;99.90
13606;DHT22;6874;52.084;5.090;2023-02-28T08:12:19;2.60;99.90
13606;DHT22;6874;52.084;5.090;2023-02-28T08:14:45;2.60;99.90
13606;DHT22;6874;52.084;5.090;2023-02-28T08:17:10;2.60;99.90
13606;DHT22;6874;52.084;5.090;2023-02-28T08:19:36;2.60;99.90
13606;DHT22;6874;52.084;5.090;2023-02-28T08:22:02;2.60;99.90
13606;DHT22;6874;52.084;5.090;2023-02-28T08:24:27;2.60;99.90
13606;DHT22;6874;52.084;5.090;2023-02-28T08:26:53;2.60;99.90
13606;DHT22;6874;52.084;5.090;2023-02-28T08:29:19;2.60;99.90
13606;DHT22;6874;52.084;5.090;2023-02-28T08:31:44;2.70;99.90
13606;DHT22;6874;52.084;5.090;2023-02-28T08:34:12;2.70;99.90
13606;DHT22;6874;52.084;5.090;2023-02-28T08:36:39;2.70;99.90
13606;DHT22;6874;52.084;5.090;2023-02-28T08:39:06;2.70;99.90
13606;DHT22;6874;52.084;5.090;2023-02-28T08:41:32;2.70;99.90
13606;DHT22;6874;52.084;5.090;2023-02-28T08:43:58;2.70;99.90
13606;DHT22;6874;52.084;5.090;2023-02-28T08:46:24;2.80;99.90
13606;DHT22;6874;52.084;5.090;2023-02-28T08:48:56;2.70;99.90
13606;DHT22;6874;52.084;5.090;2023-02-28T08:51:27;2.80;99.90
13606;DHT22;6874;52.084;5.090;2023-02-28T08:53:58;2.80;99.90
13606;DHT22;6874;52.084;5.090;2023-02-28T08:56:25;2.80;99.90
13606;DHT22;6874;52.084;5.090;2023-02-28T08:58:51;2.90;99.90
13606;DHT22;6874;52.084;5.090;2023-02-28T09:01:20;2.90;99.90
13606;DHT22;6874;52.084;5.090;2023-02-28T09:03:47;2.90;99.90
13606;DHT22;6874;52.084;5.090;2023-02-28T09:06:14;2.90;99.90
13606;DHT22;6874;52.084;5.090;2023-02-28T09:08:41;2.90;99.90
13606;DHT22;6874;52.084;5.090;2023-02-28T09:11:07;2.90;99.90
13606;DHT22;6874;52.084;5.090;2023-02-28T09:13:33;3.00;99.90
13606;DHT22;6874;52.084;5.090;2023-02-28T09:16:00;3.00;99.90
13606;DHT22;6874;52.084;5.090;2023-02-28T09:18:26;3.00;99.90
13606;DHT22;6874;52.084;5.090;2023-02-28T09:20:52;3.00;99.90
13606;DHT22;6874;52.084;5.090;2023-02-28T09:23:18;3.00;99.90
13606;DHT22;6874;52.084;5.090;2023-02-28T09:25:52;3.10;99.90
13606;DHT22;6874;52.084;5.090;2023-02-28T09:28:18;3.00;99.90
13606;DHT22;6874;52.084;5.090;2023-02-28T09:30:47;3.10;99.90
13606;DHT22;6874;52.084;5.090;2023-02-28T09:33:13;3.10;99.90
13606;DHT22;6874;52.084;5.090;2023-02-28T09:35:39;3.10;99.90
13606;DHT22;6874;52.084;5.090;2023-02-28T09:38:04;3.10;99.90
13606;DHT22;6874;52.084;5.090;2023-02-28T09:40:36;3.10;99.90
13606;DHT22;6874;52.084;5.090;2023-02-28T09:43:02;3.10;99.90
13606;DHT22;6874;52.084;5.090;2023-02-28T09:45:29;3.10;99.90
13606;DHT22;6874;52.084;5.090;2023-02-28T09:48:03;3.10;99.90
13606;DHT22;6874;52.084;5.090;2023-02-28T09:50:35;3.20;99.90
13606;DHT22;6874;52.084;5.090;2023-02-28T09:53:27;3.10;99.90
13606;DHT22;6874;52.084;5.090;2023-02-28T09:56:09;3.20;99.90
13606;DHT22;6874;52.084;5.090;2023-02-28T09:59:29;3.20;99.90
13606;DHT22;6874;52.084;5.090;2023-02-28T10:06:57;3.30;99.90
13606;DHT22;6874;52.084;5.090;2023-02-28T10:09:26;3.30;99.90
13606;DHT22;6874;52.084;5.090;2023-02-28T10:11:56;3.30;99.90
13606;DHT22;6874;52.084;5.090;2023-02-28T10:14:25;3.40;99.90
13606;DHT22;6874;52.084;5.090;2023-02-28T10:16:52;3.40;99.90
13606;DHT22;6874;52.084;5.090;2023-02-28T10:19:35;3.50;99.90
13606;DHT22;6874;52.084;5.090;2023-02-28T10:22:11;3.50;99.90
13606;DHT22;6874;52.084;5.090;2023-02-28T10:24:41;3.60;99.90
13606;DHT22;6874;52.084;5.090;2023-02-28T10:27:22;3.60;99.90
13606;DHT22;6874;52.084;5.090;2023-02-28T10:29:50;3.60;99.90
13606;DHT22;6874;52.084;5.090;2023-02-28T10:32:22;3.70;99.90
13606;DHT22;6874;52.084;5.090;2023-02-28T10:37:42;3.80;99.90
13606;DHT22;6874;52.084;5.090;2023-02-28T10:45:23;3.90;99.90
13606;DHT22;6874;52.084;5.090;2023-02-28T10:56:17;4.10;99.90
13606;DHT22;6874;52.084;5.090;2023-02-28T11:04:00;4.30;99.90
13606;DHT22;6874;52.084;5.090;2023-02-28T11:06:29;4.30;99.90
13606;DHT22;6874;52.084;5.090;2023-02-28T11:09:01;4.40;99.90
13606;DHT22;6874;52.084;5.090;2023-02-28T11:11:29;4.40;99.90
13606;DHT22;6874;52.084;5.090;2023-02-28T11:14:03;4.50;99.90
13606;DHT22;6874;52.084;5.090;2023-02-28T11:16:35;4.50;99.90
13606;DHT22;6874;52.084;5.090;2023-02-28T11:19:04;4.60;99.90
13606;DHT22;6874;52.084;5.090;2023-02-28T11:21:36;4.60;99.90
13606;DHT22;6874;52.084;5.090;2023-02-28T11:24:36;4.60;99.90
13606;DHT22;6874;52.084;5.090;2023-02-28T11:27:00;4.60;99.90
13606;DHT22;6874;52.084;5.090;2023-02-28T11:29:29;4.70;99.90
13606;DHT22;6874;52.084;5.090;2023-02-28T11:34:41;4.70;99.90
13606;DHT22;6874;52.084;5.090;2023-02-28T11:37:18;4.80;99.90
13606;DHT22;6874;52.084;5.090;2023-02-28T11:39:45;4.80;99.90
13606;DHT22;6874;52.084;5.090;2023-02-28T11:50:48;5.20;99.90
13606;DHT22;6874;52.084;5.090;2023-02-28T11:56:15;5.50;99.90
13606;DHT22;6874;52.084;5.090;2023-02-28T11:58:55;5.60;99.90
13606;DHT22;6874;52.084;5.090;2023-02-28T12:07:18;6.10;99.90
13606;DHT22;6874;52.084;5.090;2023-02-28T12:10:10;6.30;99.90
13606;DHT22;6874;52.084;5.090;2023-02-28T12:12:50;6.40;99.90
13606;DHT22;6874;52.084;5.090;2023-02-28T12:26:43;7.10;99.90
13606;DHT22;6874;52.084;5.090;2023-02-28T12:34:43;7.30;99.90
13606;DHT22;6874;52.084;5.090;2023-02-28T12:37:17;7.40;99.90
13606;DHT22;6874;52.084;5.090;2023-02-28T12:39:48;7.50;99.90
13606;DHT22;6874;52.084;5.090;2023-02-28T12:42:27;7.50;99.90
13606;DHT22;6874;52.084;5.090;2023-02-28T12:44:58;7.60;99.90
13606;DHT22;6874;52.084;5.090;2023-02-28T12:47:25;7.60;99.90
13606;DHT22;6874;52.084;5.090;2023-02-28T12:50:05;7.70;99.90
13606;DHT22;6874;52.084;5.090;2023-02-28T12:53:06;7.70;99.90
13606;DHT22;6874;52.084;5.090;2023-02-28T13:01:20;7.90;99.90
13606;DHT22;6874;52.084;5.090;2023-02-28T13:09:40;8.10;99.90
13606;DHT22;6874;52.084;5.090;2023-02-28T13:12:13;8.10;99.90
13606;DHT22;6874;52.084;5.090;2023-02-28T13:14:40;8.20;99.90
13606;DHT22;6874;52.084;5.090;2023-02-28T13:19:37;8.30;99.90
13606;DHT22;6874;52.084;5.090;2023-02-28T13:22:03;8.30;99.90
13606;DHT22;6874;52.084;5.090;2023-02-28T13:24:46;8.40;99.90
13606;DHT22;6874;52.084;5.090;2023-02-28T13:29:42;8.50;99.90
13606;DHT22;6874;52.084;5.090;2023-02-28T13:37:36;8.60;99.90
13606;DHT22;6874;52.084;5.090;2023-02-28T13:47:39;8.80;99.90
13606;DHT22;6874;52.084;5.090;2023-02-28T14:03:46;9.00;99.90
13606;DHT22;6874;52.084;5.090;2023-02-28T14:06:33;9.10;99.90
13606;DHT22;6874;52.084;5.090;2023-02-28T14:11:57;9.10;99.90
13606;DHT22;6874;52.084;5.090;2023-02-28T14:17:12;9.10;99.90
13606;DHT22;6874;52.084;5.090;2023-02-28T14:19:39;9.10;99.90
13606;DHT22;6874;52.084;5.090;2023-02-28T14:25:36;9.10;99.90
13606;DHT22;6874;52.084;5.090;2023-02-28T14:28:08;9.20;99.90
13606;DHT22;6874;52.084;5.090;2023-02-28T14:31:04;9.20;99.90
13606;DHT22;6874;52.084;5.090;2023-02-28T14:38:57;9.30;99.90
13606;DHT22;6874;52.084;5.090;2023-02-28T14:41:37;9.30;99.90
13606;DHT22;6874;52.084;5.090;2023-02-28T14:46:41;9.30;99.90
13606;DHT22;6874;52.084;5.090;2023-02-28T14:49:26;9.30;99.90
13606;DHT22;6874;52.084;5.090;2023-02-28T14:52:24;9.30;99.90
13606;DHT22;6874;52.084;5.090;2023-02-28T14:55:03;9.30;99.90
13606;DHT22;6874;52.084;5.090;2023-02-28T14:57:34;9.30;99.90
13606;DHT22;6874;52.084;5.090;2023-02-28T15:02:48;9.30;99.90
13606;DHT22;6874;52.084;5.090;2023-02-28T15:07:42;9.30;99.90
13606;DHT22;6874;52.084;5.090;2023-02-28T15:10:22;9.20;99.90
13606;DHT22;6874;52.084;5.090;2023-02-28T15:13:04;9.20;99.90
13606;DHT22;6874;52.084;5.090;2023-02-28T15:15:41;9.20;99.90
13606;DHT22;6874;52.084;5.090;2023-02-28T15:18:11;9.10;99.90
13606;DHT22;6874;52.084;5.090;2023-02-28T15:20:42;9.10;99.90
13606;DHT22;6874;52.084;5.090;2023-02-28T15:23:09;9.10;99.90
13606;DHT22;6874;52.084;5.090;2023-02-28T15:25:35;9.00;99.90
13606;DHT22;6874;52.084;5.090;2023-02-28T15:28:01;9.00;99.90
13606;DHT22;6874;52.084;5.090;2023-02-28T15:30:30;8.90;99.90
13606;DHT22;6874;52.084;5.090;2023-02-28T15:33:26;9.00;99.90
13606;DHT22;6874;52.084;5.090;2023-02-28T15:36:12;8.80;99.90
13606;DHT22;6874;52.084;5.090;2023-02-28T15:38:38;8.80;99.90
13606;DHT22;6874;52.084;5.090;2023-02-28T15:41:04;8.80;99.90
13606;DHT22;6874;52.084;5.090;2023-02-28T15:43:36;8.80;99.90
13606;DHT22;6874;52.084;5.090;2023-02-28T15:46:10;8.80;99.90
13606;DHT22;6874;52.084;5.090;2023-02-28T15:48:52;8.70;99.90
13606;DHT22;6874;52.084;5.090;2023-02-28T15:51:24;8.70;99.90
13606;DHT22;6874;52.084;5.090;2023-02-28T15:54:04;8.60;99.90
13606;DHT22;6874;52.084;5.090;2023-02-28T15:56:35;8.60;99.90
13606;DHT22;6874;52.084;5.090;2023-02-28T15:59:06;8.50;99.90
13606;DHT22;6874;52.084;5.090;2023-02-28T16:01:34;8.50;99.90
13606;DHT22;6874;52.084;5.090;2023-02-28T16:04:05;8.40;99.90
13606;DHT22;6874;52.084;5.090;2023-02-28T16:06:41;8.40;99.90
13606;DHT22;6874;52.084;5.090;2023-02-28T16:09:16;8.40;99.90
13606;DHT22;6874;52.084;5.090;2023-02-28T16:11:48;8.30;99.90
13606;DHT22;6874;52.084;5.090;2023-02-28T16:14:22;8.30;99.90
13606;DHT22;6874;52.084;5.090;2023-02-28T16:16:54;8.20;99.90
13606;DHT22;6874;52.084;5.090;2023-02-28T16:19:20;8.20;99.90
13606;DHT22;6874;52.084;5.090;2023-02-28T16:21:46;8.10;99.90
13606;DHT22;6874;52.084;5.090;2023-02-28T16:24:12;8.10;99.90
13606;DHT22;6874;52.084;5.090;2023-02-28T16:26:40;8.00;99.90
13606;DHT22;6874;52.084;5.090;2023-02-28T16:29:06;8.00;99.90
13606;DHT22;6874;52.084;5.090;2023-02-28T16:31:36;7.90;99.90
13606;DHT22;6874;52.084;5.090;2023-02-28T16:34:03;7.90;99.90
13606;DHT22;6874;52.084;5.090;2023-02-28T16:36:30;7.80;99.90
13606;DHT22;6874;52.084;5.090;2023-02-28T16:38:55;7.70;99.90
13606;DHT22;6874;52.084;5.090;2023-02-28T16:41:26;7.70;99.90
13606;DHT22;6874;52.084;5.090;2023-02-28T16:43:55;7.70;99.90
13606;DHT22;6874;52.084;5.090;2023-02-28T16:46:30;7.60;99.90
13606;DHT22;6874;52.084;5.090;2023-02-28T16:48:56;7.60;99.90
13606;DHT22;6874;52.084;5.090;2023-02-28T16:51:22;7.50;99.90
13606;DHT22;6874;52.084;5.090;2023-02-28T16:53:47;7.50;99.90
13606;DHT22;6874;52.084;5.090;2023-02-28T16:56:19;7.40;99.90
13606;DHT22;6874;52.084;5.090;2023-02-28T16:58:46;7.40;99.90
13606;DHT22;6874;52.084;5.090;2023-02-28T17:01:13;7.30;99.90
13606;DHT22;6874;52.084;5.090;2023-02-28T17:03:38;7.30;99.90
13606;DHT22;6874;52.084;5.090;2023-02-28T17:06:08;7.20;99.90
13606;DHT22;6874;52.084;5.090;2023-02-28T17:08:38;7.20;99.90
13606;DHT22;6874;52.084;5.090;2023-02-28T17:11:03;7.10;99.90
13606;DHT22;6874;52.084;5.090;2023-02-28T17:13:29;7.00;99.90
13606;DHT22;6874;52.084;5.090;2023-02-28T17:15:55;6.90;99.90
13606;DHT22;6874;52.084;5.090;2023-02-28T17:18:21;6.90;99.90
13606;DHT22;6874;52.084;5.090;2023-02-28T17:20:47;6.90;99.90
13606;DHT22;6874;52.084;5.090;2023-02-28T17:23:13;6.80;99.90
13606;DHT22;6874;52.084;5.090;2023-02-28T17:25:38;6.80;99.90
13606;DHT22;6874;52.084;5.090;2023-02-28T17:28:04;6.70;99.90
13606;DHT22;6874;52.084;5.090;2023-02-28T17:30:33;6.70;99.90
13606;DHT22;6874;52.084;5.090;2023-02-28T17:32:59;6.70;99.90
13606;DHT22;6874;52.084;5.090;2023-02-28T17:35:25;6.60;99.90
13606;DHT22;6874;52.084;5.090;2023-02-28T17:37:52;6.60;99.90
13606;DHT22;6874;52.084;5.090;2023-02-28T17:40:20;6.60;99.90
13606;DHT22;6874;52.084;5.090;2023-02-28T17:42:46;6.50;99.90
13606;DHT22;6874;52.084;5.090;2023-02-28T17:45:13;6.50;99.90
13606;DHT22;6874;52.084;5.090;2023-02-28T17:47:39;6.40;99.90
13606;DHT22;6874;52.084;5.090;2023-02-28T17:50:06;6.40;99.90
13606;DHT22;6874;52.084;5.090;2023-02-28T17:52:31;6.30;99.90
13606;DHT22;6874;52.084;5.090;2023-02-28T17:55:03;6.30;99.90
13606;DHT22;6874;52.084;5.090;2023-02-28T17:57:29;6.30;99.90
13606;DHT22;6874;52.084;5.090;2023-02-28T17:59:55;6.20;99.90
13606;DHT22;6874;52.084;5.090;2023-02-28T18:02:20;6.20;99.90
13606;DHT22;6874;52.084;5.090;2023-02-28T18:04:46;6.20;99.90
13606;DHT22;6874;52.084;5.090;2023-02-28T18:07:11;6.10;99.90
13606;DHT22;6874;52.084;5.090;2023-02-28T18:09:37;6.10;99.90
13606;DHT22;6874;52.084;5.090;2023-02-28T18:12:03;6.00;99.90
13606;DHT22;6874;52.084;5.090;2023-02-28T18:14:29;6.00;99.90
13606;DHT22;6874;52.084;5.090;2023-02-28T18:16:55;6.00;99.90
13606;DHT22;6874;52.084;5.090;2023-02-28T18:19:22;5.90;99.90
13606;DHT22;6874;52.084;5.090;2023-02-28T18:21:50;5.90;99.90
13606;DHT22;6874;52.084;5.090;2023-02-28T18:24:17;5.80;99.90
13606;DHT22;6874;52.084;5.090;2023-02-28T18:26:43;5.80;99.90
13606;DHT22;6874;52.084;5.090;2023-02-28T18:29:16;5.80;99.90
13606;DHT22;6874;52.084;5.090;2023-02-28T18:31:42;5.70;99.90
13606;DHT22;6874;52.084;5.090;2023-02-28T18:34:07;5.70;99.90
13606;DHT22;6874;52.084;5.090;2023-02-28T18:36:33;5.60;99.90
13606;DHT22;6874;52.084;5.090;2023-02-28T18:38:59;5.60;99.90
13606;DHT22;6874;52.084;5.090;2023-02-28T18:41:24;5.60;99.90
13606;DHT22;6874;52.084;5.090;2023-02-28T18:43:50;5.50;99.90
13606;DHT22;6874;52.084;5.090;2023-02-28T18:46:18;5.50;99.90
13606;DHT22;6874;52.084;5.090;2023-02-28T18:48:44;5.40;99.90
13606;DHT22;6874;52.084;5.090;2023-02-28T18:51:19;5.40;99.90
13606;DHT22;6874;52.084;5.090;2023-02-28T18:53:45;5.30;99.90
13606;DHT22;6874;52.084;5.090;2023-02-28T18:56:13;5.40;99.90
13606;DHT22;6874;52.084;5.090;2023-02-28T18:58:39;5.30;99.90
13606;DHT22;6874;52.084;5.090;2023-02-28T19:03:38;5.20;99.90
13606;DHT22;6874;52.084;5.090;2023-02-28T19:06:04;5.20;99.90
13606;DHT22;6874;52.084;5.090;2023-02-28T19:08:30;5.10;99.90